createdAt,value
2023-04-13T00:02:06.714Z,1.63
2023-04-13T00:04:37.133Z,1.58
2023-04-13T00:07:05.207Z,1.85
2023-04-13T00:09:34.927Z,2.00
2023-04-13T00:12:05.154Z,2.33
2023-04-13T00:14:34.324Z,1.55
2023-04-13T00:17:03.197Z,1.83
2023-04-13T00:19:31.212Z,1.60
2023-04-13T00:22:00.737Z,2.00
2023-04-13T00:24:28.450Z,1.38
2023-04-13T00:26:57.127Z,1.40
2023-04-13T00:29:25.146Z,2.65
2023-04-13T00:31:53.028Z,1.30
2023-04-13T00:34:20.924Z,1.95
2023-04-13T00:36:49.229Z,2.47
2023-04-13T00:39:23.299Z,1.98
2023-04-13T00:41:51.321Z,2.60
2023-04-13T00:44:19.994Z,1.83
2023-04-13T00:46:48.635Z,1.83
2023-04-13T00:49:16.978Z,2.75
2023-04-13T00:51:45.902Z,3.03
2023-04-13T00:54:15.624Z,1.33
2023-04-13T00:56:45.052Z,1.40
2023-04-13T00:59:14.222Z,1.48
2023-04-13T01:01:50.583Z,1.92
2023-04-13T01:04:19.965Z,2.03
2023-04-13T01:06:51.377Z,2.40
2023-04-13T01:09:23.139Z,1.95
2023-04-13T01:11:57.922Z,1.50
2023-04-13T01:14:29.472Z,1.05
2023-04-13T01:17:01.289Z,2.15
2023-04-13T01:19:36.811Z,1.60
2023-04-13T01:22:04.953Z,1.67
2023-04-13T01:24:40.580Z,1.60
2023-04-13T01:27:14.714Z,1.80
2023-04-13T01:29:46.707Z,1.47
2023-04-13T01:32:15.041Z,2.50
2023-04-13T01:34:42.744Z,1.52
2023-04-13T01:37:11.221Z,2.47
2023-04-13T01:39:40.012Z,3.28
2023-04-13T01:42:07.764Z,1.98
2023-04-13T01:44:36.610Z,2.47
2023-04-13T01:47:16.070Z,1.05
2023-04-13T01:49:48.106Z,1.50
2023-04-13T01:52:17.237Z,1.20
2023-04-13T01:54:46.598Z,3.72
2023-04-13T01:57:14.854Z,2.00
2023-04-13T01:59:42.506Z,2.70
2023-04-13T02:02:16.955Z,2.28
2023-04-13T02:04:45.046Z,2.80
2023-04-13T02:07:12.875Z,2.03
2023-04-13T02:09:40.580Z,1.20
2023-04-13T02:12:09.077Z,1.83
2023-04-13T02:14:37.331Z,2.53
2023-04-13T02:17:05.077Z,2.15
2023-04-13T02:19:34.713Z,1.50
2023-04-13T02:22:02.385Z,1.77
2023-04-13T02:24:30.331Z,2.70
2023-04-13T02:26:58.047Z,2.58
2023-04-13T02:29:28.548Z,2.03
2023-04-13T02:31:56.257Z,2.35
2023-04-13T02:34:24.020Z,1.60
2023-04-13T02:36:53.710Z,2.70
2023-04-13T02:39:21.436Z,1.83
2023-04-13T02:41:49.166Z,3.10
2023-04-13T02:44:16.872Z,1.88
2023-04-13T02:46:44.701Z,2.15
2023-04-13T02:49:12.394Z,2.50
2023-04-13T02:51:40.194Z,1.70
2023-04-13T02:54:11.152Z,2.58
2023-04-13T02:56:38.791Z,2.00
2023-04-13T02:59:06.537Z,1.53
2023-04-13T03:01:34.290Z,2.20
2023-04-13T03:04:02.301Z,2.92
2023-04-13T03:06:31.227Z,2.03
2023-04-13T03:08:59.282Z,2.97
2023-04-13T03:11:28.760Z,1.30
2023-04-13T03:13:58.247Z,1.83
2023-04-13T03:16:26.568Z,2.45
2023-04-13T03:18:54.715Z,3.80
2023-04-13T03:21:22.616Z,1.85
2023-04-13T03:23:50.399Z,2.10
2023-04-13T03:26:18.126Z,3.58
2023-04-13T03:28:47.294Z,2.70
2023-04-13T03:31:15.199Z,2.00
2023-04-13T03:33:42.966Z,2.05
2023-04-13T03:36:11.641Z,1.27
2023-04-13T03:38:39.297Z,2.53
2023-04-13T03:41:07.869Z,2.20
2023-04-13T03:43:36.009Z,1.30
2023-04-13T03:46:05.815Z,1.55
2023-04-13T03:48:33.580Z,1.80
2023-04-13T03:51:01.387Z,1.37
2023-04-13T03:53:29.382Z,1.08
2023-04-13T03:55:57.125Z,2.28
2023-04-13T03:58:24.955Z,1.50
2023-04-13T04:00:53.019Z,1.48
2023-04-13T04:03:22.611Z,1.02
2023-04-13T04:05:50.606Z,1.63
2023-04-13T04:08:18.559Z,1.40
2023-04-13T04:10:46.337Z,2.33
2023-04-13T04:13:14.039Z,1.85
2023-04-13T04:15:41.749Z,2.05
2023-04-13T04:18:10.556Z,2.17
2023-04-13T04:20:39.719Z,1.60
2023-04-13T04:23:09.770Z,2.05
2023-04-13T04:25:38.164Z,1.73
2023-04-13T04:28:06.318Z,2.97
2023-04-13T04:30:35.067Z,2.65
2023-04-13T04:33:02.914Z,1.90
2023-04-13T04:35:34.203Z,1.80
2023-04-13T04:38:04.483Z,2.38
2023-04-13T04:40:35.926Z,2.85
2023-04-13T04:43:04.851Z,2.00
2023-04-13T04:45:33.618Z,2.70
2023-04-13T04:48:04.010Z,3.22
2023-04-13T04:50:33.368Z,2.20
2023-04-13T04:53:01.094Z,3.42
2023-04-13T04:55:30.338Z,2.60
2023-04-13T04:57:58.157Z,2.25
2023-04-13T05:00:26.621Z,3.92
2023-04-13T05:02:54.576Z,3.30
2023-04-13T05:05:22.593Z,3.63
2023-04-13T05:07:50.742Z,2.83
2023-04-13T05:10:18.398Z,4.00
2023-04-13T05:12:47.518Z,2.25
2023-04-13T05:15:15.250Z,3.00
2023-04-13T05:17:46.922Z,4.60
2023-04-13T05:20:14.883Z,2.90
2023-04-13T05:22:43.287Z,2.95
2023-04-13T05:25:11.858Z,4.67
2023-04-13T05:27:39.770Z,3.50
2023-04-13T05:30:10.493Z,2.88
2023-04-13T05:32:38.255Z,3.78
2023-04-13T05:35:07.224Z,3.20
2023-04-13T05:37:35.180Z,3.42
2023-04-13T05:40:08.342Z,3.78
2023-04-13T05:42:36.048Z,2.92
2023-04-13T05:45:03.970Z,4.63
2023-04-13T05:47:34.125Z,2.53
2023-04-13T05:50:02.014Z,3.03
2023-04-13T05:52:29.691Z,4.35
2023-04-13T05:54:58.072Z,3.38
2023-04-13T05:57:26.076Z,3.60
2023-04-13T05:59:54.175Z,3.55
2023-04-13T06:02:22.712Z,2.83
2023-04-13T06:04:53.619Z,4.00
2023-04-13T06:07:22.301Z,4.32
2023-04-13T06:09:49.946Z,4.03
2023-04-13T06:12:18.437Z,4.15
2023-04-13T06:14:46.151Z,3.83
2023-04-13T06:17:13.840Z,4.10
2023-04-13T06:19:41.512Z,4.63
2023-04-13T06:22:10.582Z,3.72
2023-04-13T06:24:38.521Z,5.07
2023-04-13T06:27:06.197Z,5.70
2023-04-13T06:29:34.226Z,4.30
2023-04-13T06:32:01.847Z,6.20
2023-04-13T06:34:29.577Z,5.93
2023-04-13T06:36:58.205Z,5.72
2023-04-13T06:39:28.752Z,6.07
2023-04-13T06:41:57.604Z,6.40
2023-04-13T06:44:25.586Z,6.27
2023-04-13T06:46:53.348Z,7.30
2023-04-13T06:49:21.147Z,6.30
2023-04-13T06:51:48.830Z,7.45
2023-04-13T06:54:16.540Z,7.55
2023-04-13T06:56:45.958Z,7.15
2023-04-13T06:59:13.723Z,6.65
2023-04-13T07:01:41.478Z,8.13
2023-04-13T07:04:09.469Z,4.90
2023-04-13T07:06:37.238Z,6.67
2023-04-13T07:09:04.882Z,6.55
2023-04-13T07:11:32.601Z,4.70
2023-04-13T07:14:02.002Z,5.80
2023-04-13T07:16:30.145Z,6.73
2023-04-13T07:19:00.925Z,7.63
2023-04-13T07:21:28.888Z,5.63
2023-04-13T07:23:56.535Z,5.40
2023-04-13T07:26:24.195Z,5.85
2023-04-13T07:28:51.879Z,6.18
2023-04-13T07:31:21.023Z,5.43
2023-04-13T07:33:48.744Z,7.00
2023-04-13T07:36:16.798Z,6.15
2023-04-13T07:38:44.523Z,7.25
2023-04-13T07:41:12.750Z,6.47
2023-04-13T07:43:41.193Z,6.43
2023-04-13T07:46:12.625Z,7.15
2023-04-13T07:48:44.344Z,6.93
2023-04-13T07:51:17.522Z,8.25
2023-04-13T07:53:45.279Z,6.03
2023-04-13T07:56:13.026Z,7.03
2023-04-13T07:58:43.318Z,6.10
2023-04-13T08:01:11.435Z,6.43
2023-04-13T08:03:39.350Z,5.40
2023-04-13T08:06:09.777Z,4.88
2023-04-13T08:08:37.518Z,4.93
2023-04-13T08:11:05.445Z,4.28
2023-04-13T08:13:33.078Z,4.13
2023-04-13T08:16:00.807Z,2.83
2023-04-13T08:18:28.583Z,3.53
2023-04-13T08:20:57.332Z,2.75
2023-04-13T08:23:27.476Z,2.63
2023-04-13T08:25:55.129Z,3.13
2023-04-13T08:28:23.072Z,2.90
2023-04-13T08:30:50.844Z,2.72
2023-04-13T08:33:18.554Z,2.13
2023-04-13T08:35:46.330Z,1.90
2023-04-13T08:38:16.404Z,2.95
2023-04-13T08:40:46.558Z,2.92
2023-04-13T08:43:14.390Z,3.13
2023-04-13T08:45:42.253Z,1.85
2023-04-13T08:48:11.604Z,2.90
2023-04-13T08:50:39.366Z,2.08
2023-04-13T08:53:07.230Z,3.45
2023-04-13T08:55:35.017Z,3.00
2023-04-13T08:58:04.799Z,3.35
2023-04-13T09:00:33.630Z,3.08
2023-04-13T09:03:06.636Z,3.63
2023-04-13T09:05:40.258Z,3.70
2023-04-13T09:08:08.668Z,4.47
2023-04-13T09:10:36.738Z,6.50
2023-04-13T09:13:05.892Z,4.43
2023-04-13T09:15:33.831Z,3.40
2023-04-13T09:18:09.197Z,2.05
2023-04-13T09:20:37.999Z,2.78
2023-04-13T09:23:14.671Z,2.53
2023-04-13T09:25:42.483Z,2.08
2023-04-13T09:28:18.700Z,1.83
2023-04-13T09:30:47.023Z,2.20
2023-04-13T09:33:15.868Z,1.33
2023-04-13T09:35:43.618Z,1.20
2023-04-13T09:38:15.395Z,0.90
2023-04-13T09:40:54.439Z,1.75
2023-04-13T09:43:23.592Z,1.35
2023-04-13T09:45:51.321Z,1.42
2023-04-13T09:48:20.593Z,1.13
2023-04-13T09:50:59.174Z,1.40
2023-04-13T09:53:27.310Z,0.82
2023-04-13T09:55:58.811Z,0.80
2023-04-13T09:58:27.918Z,2.15
2023-04-13T10:00:56.409Z,2.28
2023-04-13T10:03:24.370Z,2.05
2023-04-13T10:05:59.558Z,4.00
2023-04-13T10:11:01.359Z,2.60
2023-04-13T10:13:34.107Z,3.38
2023-04-13T10:16:36.696Z,6.05
2023-04-13T10:19:06.413Z,4.63
2023-04-13T10:21:36.246Z,7.88
2023-04-13T10:24:11.416Z,6.63
2023-04-13T10:26:40.506Z,6.18
2023-04-13T10:29:11.605Z,5.75
2023-04-13T10:31:40.031Z,7.22
2023-04-13T10:34:08.115Z,7.53
2023-04-13T10:36:40.034Z,8.37
2023-04-13T10:39:08.249Z,9.98
2023-04-13T10:41:36.592Z,6.60
2023-04-13T10:44:05.010Z,4.63
2023-04-13T10:46:35.012Z,4.80
2023-04-13T10:49:03.316Z,5.30
2023-04-13T10:51:41.345Z,8.02
2023-04-13T10:54:09.871Z,6.10
2023-04-13T10:56:38.092Z,4.63
2023-04-13T10:59:05.824Z,4.63
2023-04-13T11:01:35.849Z,6.88
2023-04-13T11:04:06.840Z,5.35
2023-04-13T11:06:38.509Z,7.13
2023-04-13T11:09:07.316Z,10.05
2023-04-13T11:11:37.772Z,6.20
2023-04-13T11:14:05.617Z,6.60
2023-04-13T11:16:44.894Z,4.60
2023-04-13T11:19:12.655Z,8.25
2023-04-13T11:21:40.426Z,4.43
2023-04-13T11:24:10.058Z,6.20
2023-04-13T11:26:38.728Z,4.80
2023-04-13T11:29:06.891Z,6.00
2023-04-13T11:31:40.185Z,4.53
2023-04-13T11:34:09.680Z,4.72
2023-04-13T11:36:38.973Z,4.47
2023-04-13T11:39:10.294Z,4.60
2023-04-13T11:41:41.285Z,7.47
2023-04-13T11:44:08.978Z,4.25
2023-04-13T11:46:39.011Z,4.30
2023-04-13T11:49:48.020Z,5.50
2023-04-13T11:52:15.875Z,4.45
2023-04-13T11:54:44.686Z,6.82
2023-04-13T11:57:13.655Z,5.67
2023-04-13T11:59:41.355Z,5.75
2023-04-13T12:02:20.792Z,6.78
2023-04-13T12:04:51.336Z,6.07
2023-04-13T12:07:19.727Z,5.68
2023-04-13T12:15:10.767Z,4.82
2023-04-13T12:17:49.489Z,5.05
2023-04-13T12:20:20.709Z,4.70
2023-04-13T12:22:57.661Z,3.50
2023-04-13T12:25:35.107Z,4.93
2023-04-13T12:28:04.433Z,6.05
2023-04-13T12:30:33.942Z,6.00
2023-04-13T12:33:03.440Z,4.57
2023-04-13T12:35:31.245Z,7.00
2023-04-13T12:38:00.243Z,5.07
2023-04-13T12:40:27.992Z,6.70
2023-04-13T12:42:55.747Z,9.60
2023-04-13T12:45:23.424Z,6.45
2023-04-13T12:47:51.323Z,6.32
2023-04-13T12:50:20.535Z,6.05
2023-04-13T12:52:49.790Z,5.07
2023-04-13T12:55:18.248Z,6.18
2023-04-13T12:57:46.002Z,5.60
2023-04-13T13:00:15.918Z,4.70
2023-04-13T13:02:43.862Z,4.68
2023-04-13T13:05:11.983Z,6.93
2023-04-13T13:07:44.181Z,4.47
2023-04-13T13:10:29.103Z,3.90
2023-04-13T13:12:57.937Z,4.55
2023-04-13T13:15:25.861Z,4.88
2023-04-13T13:17:53.646Z,5.15
2023-04-13T13:20:21.436Z,4.65
2023-04-13T13:22:50.520Z,3.95
2023-04-13T13:25:18.287Z,5.68
2023-04-13T13:30:16.674Z,4.88
2023-04-13T13:32:44.334Z,4.70
2023-04-13T13:35:12.072Z,3.75
2023-04-13T13:37:39.867Z,3.63
2023-04-13T13:40:13.317Z,5.25
2023-04-13T13:42:51.401Z,6.37
2023-04-13T13:45:20.833Z,5.57
2023-04-13T13:47:51.285Z,5.53
2023-04-13T13:50:20.254Z,4.35
2023-04-13T13:52:59.737Z,6.72
2023-04-13T13:55:32.011Z,3.10
2023-04-13T13:57:59.816Z,4.97
2023-04-13T14:00:27.505Z,5.63
2023-04-13T14:02:55.206Z,6.88
2023-04-13T14:05:23.320Z,5.40
2023-04-13T14:07:51.112Z,4.67
2023-04-13T14:10:18.884Z,4.30
2023-04-13T14:12:50.487Z,4.90
2023-04-13T14:15:18.809Z,5.03
2023-04-13T14:17:52.838Z,4.63
2023-04-13T14:20:30.032Z,5.05
2023-04-13T14:22:58.494Z,5.25
2023-04-13T14:25:26.245Z,2.70
2023-04-13T14:27:55.308Z,3.13
2023-04-13T14:30:25.577Z,3.33
2023-04-13T14:32:54.985Z,6.90
2023-04-13T14:35:22.871Z,3.78
2023-04-13T14:37:50.680Z,54.80
2023-04-13T14:40:21.842Z,16.27
2023-04-13T14:42:51.025Z,14.30
2023-04-13T14:45:20.323Z,9.37
2023-04-13T14:47:48.274Z,10.20
2023-04-13T14:50:16.340Z,5.03
2023-04-13T14:52:44.412Z,6.25
2023-04-13T14:55:12.706Z,4.68
2023-04-13T14:57:40.634Z,5.13
2023-04-13T15:00:14.918Z,4.72
2023-04-13T15:02:45.906Z,3.58
2023-04-13T15:13:06.447Z,4.00
2023-04-13T15:15:36.421Z,3.20
2023-04-13T15:18:05.010Z,6.43
2023-04-13T15:20:32.846Z,4.07
2023-04-13T15:23:00.622Z,4.68
2023-04-13T15:25:28.458Z,4.60
2023-04-13T15:27:57.977Z,4.28
2023-04-13T15:30:28.357Z,5.88
2023-04-13T15:32:56.873Z,4.80
2023-04-13T15:35:25.834Z,5.10
2023-04-13T15:37:54.743Z,2.60
2023-04-13T15:40:25.009Z,2.85
2023-04-13T15:42:52.803Z,3.15
2023-04-13T15:45:20.944Z,3.00
2023-04-13T15:47:50.055Z,3.70
2023-04-13T15:50:18.955Z,3.60
2023-04-13T15:52:47.006Z,3.33
2023-04-13T15:55:14.771Z,3.92
2023-04-13T15:57:42.520Z,2.25
2023-04-13T16:00:12.506Z,3.33
2023-04-13T16:02:40.680Z,4.63
2023-04-13T16:05:10.280Z,3.58
2023-04-13T16:07:37.987Z,3.17
2023-04-13T16:10:07.059Z,3.45
2023-04-13T16:12:34.846Z,4.10
2023-04-13T16:15:03.246Z,2.90
2023-04-13T16:17:34.551Z,4.13
2023-04-13T16:20:18.280Z,2.47
2023-04-13T16:22:49.198Z,3.78
2023-04-13T16:25:17.708Z,4.10
2023-04-13T16:27:47.917Z,3.83
2023-04-13T16:30:17.847Z,3.45
2023-04-13T16:32:46.430Z,4.82
2023-04-13T16:35:14.383Z,4.38
2023-04-13T16:37:43.218Z,2.57
2023-04-13T16:40:13.260Z,8.18
2023-04-13T16:42:41.437Z,3.80
2023-04-13T16:45:13.735Z,4.30
2023-04-13T16:47:42.418Z,3.38
2023-04-13T16:50:11.031Z,4.30
2023-04-13T16:52:39.896Z,3.10
2023-04-13T16:55:08.167Z,3.63
2023-04-13T16:57:37.263Z,3.30
2023-04-13T17:00:09.371Z,3.97
2023-04-13T17:02:37.966Z,3.10
2023-04-13T17:05:08.263Z,4.40
2023-04-13T17:07:36.840Z,3.40
2023-04-13T17:10:05.535Z,3.25
2023-04-13T17:12:33.279Z,5.05
2023-04-13T17:15:02.439Z,8.63
2023-04-13T17:17:30.160Z,3.55
2023-04-13T17:19:58.094Z,3.47
2023-04-13T17:22:25.739Z,5.30
2023-04-13T17:24:53.560Z,4.22
2023-04-13T17:27:21.278Z,4.70
2023-04-13T17:29:49.907Z,3.87
2023-04-13T17:32:21.403Z,4.10
2023-04-13T17:34:49.529Z,5.45
2023-04-13T17:37:18.033Z,4.15
2023-04-13T17:39:47.618Z,4.30
2023-04-13T17:42:15.691Z,5.50
2023-04-13T17:44:43.922Z,5.38
2023-04-13T17:47:11.688Z,3.92
2023-04-13T17:49:41.368Z,4.55
2023-04-13T17:52:09.066Z,3.47
2023-04-13T17:54:37.527Z,3.83
2023-04-13T17:57:06.946Z,4.55
2023-04-13T17:59:34.898Z,3.13
2023-04-13T18:02:02.834Z,5.05
2023-04-13T18:04:32.322Z,4.25
2023-04-13T18:07:01.753Z,4.45
2023-04-13T18:09:29.480Z,3.78
2023-04-13T18:11:57.158Z,3.42
2023-04-13T18:14:24.817Z,2.50
2023-04-13T18:16:52.545Z,4.18
2023-04-13T18:19:20.433Z,5.45
2023-04-13T18:21:48.157Z,4.32
2023-04-13T18:24:17.453Z,2.00
2023-04-13T18:26:45.079Z,4.55
2023-04-13T18:29:13.659Z,4.45
2023-04-13T18:31:42.192Z,3.93
2023-04-13T18:34:12.696Z,4.57
2023-04-13T18:36:40.434Z,2.75
2023-04-13T18:39:08.152Z,4.30
2023-04-13T18:41:38.959Z,2.85
2023-04-13T18:44:07.959Z,4.75
2023-04-13T18:46:35.766Z,4.47
2023-04-13T18:49:03.456Z,4.70
2023-04-13T18:51:32.847Z,4.45
2023-04-13T18:54:00.919Z,4.50
2023-04-13T18:56:28.774Z,6.53
2023-04-13T18:58:57.797Z,5.13
2023-04-13T19:01:25.613Z,5.97
2023-04-13T19:03:53.717Z,5.27
2023-04-13T19:06:21.589Z,6.50
2023-04-13T19:08:49.303Z,6.70
2023-04-13T19:11:18.453Z,6.00
2023-04-13T19:13:47.822Z,5.03
2023-04-13T19:16:17.817Z,6.13
2023-04-13T19:18:45.565Z,7.53
2023-04-13T19:21:13.318Z,7.40
2023-04-13T19:23:41.289Z,5.95
2023-04-13T19:26:08.907Z,8.40
2023-04-13T19:28:36.546Z,9.68
2023-04-13T19:31:04.277Z,7.88
2023-04-13T19:33:34.807Z,7.70
2023-04-13T19:36:05.828Z,10.07
2023-04-13T19:38:33.552Z,11.25
2023-04-13T19:41:01.160Z,11.40
2023-04-13T19:43:28.902Z,12.82
2023-04-13T19:45:56.646Z,9.05
2023-04-13T19:48:24.355Z,12.32
2023-04-13T19:50:53.469Z,9.10
2023-04-13T19:53:21.133Z,8.90
2023-04-13T19:55:48.787Z,14.82
2023-04-13T19:58:16.877Z,15.90
2023-04-13T20:00:47.416Z,17.20
2023-04-13T20:03:15.327Z,97.38
2023-04-13T20:05:43.186Z,194.25
2023-04-13T20:08:12.309Z,58.93
2023-04-13T20:10:40.014Z,26.00
2023-04-13T20:13:07.660Z,15.38
2023-04-13T20:15:35.459Z,12.27
2023-04-13T20:18:07.207Z,14.50
2023-04-13T20:20:36.612Z,15.85
2023-04-13T20:23:05.286Z,19.08
2023-04-13T20:25:34.369Z,23.60
2023-04-13T20:28:02.058Z,23.90
2023-04-13T20:30:29.993Z,19.95
2023-04-13T20:32:57.779Z,20.25
2023-04-13T20:35:25.527Z,17.80
2023-04-13T20:37:53.229Z,17.83
2023-04-13T20:40:27.124Z,19.73
2023-04-13T20:42:58.488Z,18.85
2023-04-13T20:45:27.254Z,21.15
2023-04-13T20:47:56.249Z,19.95
2023-04-13T20:50:27.023Z,20.33
2023-04-13T20:52:56.738Z,22.67
2023-04-13T20:55:24.796Z,18.70
2023-04-13T20:57:52.477Z,19.58
2023-04-13T21:00:23.462Z,18.30
2023-04-13T21:02:52.887Z,18.05
2023-04-13T21:05:24.595Z,19.02
2023-04-13T21:07:52.297Z,20.25
2023-04-13T21:10:19.962Z,22.55
2023-04-13T21:12:47.585Z,23.63
2023-04-13T21:15:15.225Z,24.02
2023-04-13T21:17:44.357Z,21.80
2023-04-13T21:20:13.411Z,22.23
2023-04-13T21:22:41.210Z,24.70
2023-04-13T21:25:09.575Z,21.58
2023-04-13T21:27:37.206Z,11.83
2023-04-13T21:30:06.192Z,7.53
2023-04-13T21:32:33.856Z,6.40
2023-04-13T21:35:03.097Z,5.50
2023-04-13T21:37:30.916Z,6.25
2023-04-13T21:39:58.822Z,5.22
2023-04-13T21:42:26.755Z,6.03
2023-04-13T21:44:56.264Z,5.32
2023-04-13T21:47:24.096Z,4.32
2023-04-13T21:49:52.204Z,3.55
2023-04-13T21:52:21.328Z,4.55
2023-04-13T21:54:51.372Z,3.45
2023-04-13T21:57:19.370Z,4.53
2023-04-13T21:59:47.188Z,4.55
2023-04-13T22:02:14.982Z,3.55
2023-04-13T22:04:42.813Z,2.73
2023-04-13T22:07:10.532Z,3.15
2023-04-13T22:09:39.710Z,3.38
2023-04-13T22:12:07.550Z,2.20
2023-04-13T22:14:35.219Z,3.27
2023-04-13T22:17:02.874Z,3.80
2023-04-13T22:19:30.628Z,3.93
2023-04-13T22:21:58.710Z,3.60
2023-04-13T22:24:26.406Z,3.28
2023-04-13T22:26:55.465Z,4.25
2023-04-13T22:29:23.241Z,3.35
2023-04-13T22:31:51.021Z,2.30
2023-04-13T22:34:18.771Z,3.63
2023-04-13T22:36:46.558Z,3.13
2023-04-13T22:39:14.428Z,4.80
2023-04-13T22:41:42.210Z,3.33
2023-04-13T22:44:11.281Z,4.43
2023-04-13T22:46:39.045Z,4.38
2023-04-13T22:49:06.776Z,3.28
2023-04-13T22:51:39.052Z,2.50
2023-04-13T22:54:07.023Z,3.15
2023-04-13T22:56:34.728Z,2.45
2023-04-13T22:59:03.116Z,4.32
2023-04-13T23:01:32.375Z,4.03
2023-04-13T23:04:00.451Z,2.90
2023-04-13T23:06:28.499Z,3.10
2023-04-13T23:08:56.209Z,2.45
2023-04-13T23:11:24.105Z,4.00
2023-04-13T23:13:53.985Z,4.63
2023-04-13T23:16:21.710Z,4.32
2023-04-13T23:18:50.913Z,3.95
2023-04-13T23:21:18.583Z,5.85
2023-04-13T23:23:46.322Z,4.13
2023-04-13T23:26:14.195Z,4.18
2023-04-13T23:28:41.964Z,3.80
2023-04-13T23:31:09.941Z,4.53
2023-04-13T23:33:37.748Z,4.72
2023-04-13T23:36:07.397Z,5.95
2023-04-13T23:38:35.387Z,9.18
2023-04-13T23:41:03.045Z,9.00
2023-04-13T23:43:31.007Z,8.82
2023-04-13T23:45:58.907Z,7.03
2023-04-13T23:48:27.351Z,8.30
2023-04-13T23:50:55.388Z,9.48
2023-04-13T23:53:24.645Z,5.65
2023-04-13T23:55:52.418Z,7.85
2023-04-13T23:58:20.108Z,4.00
